createdAt,value
2018-02-01T00:01:04.973Z,2.70
2018-02-01T00:03:32.578Z,2.70
2018-02-01T00:06:01.021Z,2.60
2018-02-01T00:08:28.668Z,2.60
2018-02-01T00:10:56.270Z,2.60
2018-02-01T00:13:23.878Z,2.60
2018-02-01T00:15:51.537Z,2.50
2018-02-01T00:18:19.136Z,2.50
2018-02-01T00:23:21.469Z,2.40
2018-02-01T00:25:49.077Z,2.40
2018-02-01T00:28:16.751Z,2.40
2018-02-01T00:30:44.402Z,2.40
2018-02-01T00:33:12.007Z,2.30
2018-02-01T00:35:39.605Z,2.30
2018-02-01T00:38:07.260Z,2.30
2018-02-01T00:40:34.874Z,2.30
2018-02-01T00:43:02.672Z,2.30
2018-02-01T00:45:30.318Z,2.40
2018-02-01T00:47:58.697Z,2.30
2018-02-01T00:50:27.077Z,2.30
2018-02-01T00:52:54.725Z,2.30
2018-02-01T00:55:22.323Z,2.30
2018-02-01T00:57:49.921Z,2.20
2018-02-01T01:00:17.562Z,2.20
2018-02-01T01:02:45.265Z,2.20
2018-02-01T01:05:13.656Z,2.10
2018-02-01T01:07:42.073Z,2.10
2018-02-01T01:10:09.688Z,2.10
2018-02-01T01:12:37.388Z,2.10
2018-02-01T01:15:05.997Z,2.00
2018-02-01T01:17:33.596Z,2.00
2018-02-01T01:20:01.197Z,2.10
2018-02-01T01:22:28.864Z,2.00
2018-02-01T01:24:56.505Z,2.00
2018-02-01T01:27:24.109Z,2.00
2018-02-01T01:29:51.828Z,2.00
2018-02-01T01:32:20.216Z,1.90
2018-02-01T01:34:48.637Z,1.80
2018-02-01T01:37:16.284Z,1.80
2018-02-01T01:39:44.649Z,1.80
2018-02-01T01:42:13.196Z,1.80
2018-02-01T01:44:40.840Z,1.80
2018-02-01T01:47:09.210Z,1.90
2018-02-01T01:49:36.829Z,1.80
2018-02-01T01:52:04.577Z,1.90
2018-02-01T01:54:32.965Z,1.80
2018-02-01T01:57:01.357Z,1.80
2018-02-01T01:59:29.814Z,1.80
2018-02-01T02:01:57.417Z,1.80
2018-02-01T02:04:25.789Z,1.80
2018-02-01T02:06:53.525Z,1.80
2018-02-01T02:09:21.125Z,1.80
2018-02-01T02:11:48.725Z,1.80
2018-02-01T02:14:17.145Z,1.90
2018-02-01T02:16:44.745Z,1.80
2018-02-01T02:19:12.337Z,1.90
2018-02-01T02:21:40.144Z,1.90
2018-02-01T02:24:08.547Z,1.90
2018-02-01T02:26:36.146Z,1.80
2018-02-01T02:29:04.021Z,1.80
2018-02-01T02:31:31.638Z,1.80
2018-02-01T02:33:59.233Z,1.80
2018-02-01T02:36:27.751Z,1.70
2018-02-01T02:38:55.357Z,1.70
2018-02-01T02:41:22.997Z,1.80
2018-02-01T02:43:50.654Z,1.80
2018-02-01T02:46:18.254Z,1.80
2018-02-01T02:48:45.851Z,1.80
2018-02-01T02:51:13.560Z,1.80
2018-02-01T02:53:41.998Z,1.80
2018-02-01T02:56:09.605Z,1.80
2018-02-01T02:58:37.295Z,1.70
2018-02-01T03:01:05.657Z,1.70
2018-02-01T03:03:33.467Z,1.70
2018-02-01T03:06:01.983Z,1.70
2018-02-01T03:08:29.524Z,1.70
2018-02-01T03:10:58.119Z,1.60
2018-02-01T03:13:26.477Z,1.60
2018-02-01T03:15:53.995Z,1.60
2018-02-01T03:18:22.290Z,1.60
2018-02-01T03:20:49.943Z,1.60
2018-02-01T03:23:18.274Z,1.50
2018-02-01T03:25:45.846Z,1.50
2018-02-01T03:28:13.526Z,1.50
2018-02-01T03:30:41.055Z,1.50
2018-02-01T03:33:09.342Z,1.50
2018-02-01T03:35:36.912Z,1.50
2018-02-01T03:38:05.206Z,1.50
2018-02-01T03:40:33.491Z,1.50
2018-02-01T03:43:02.031Z,1.50
2018-02-01T03:45:29.565Z,1.50
2018-02-01T03:47:57.892Z,1.50
2018-02-01T03:50:25.500Z,1.50
2018-02-01T03:52:53.790Z,1.50
2018-02-01T03:55:21.415Z,1.50
2018-02-01T03:57:48.989Z,1.50
2018-02-01T04:00:16.560Z,1.50
2018-02-01T04:02:44.112Z,1.50
2018-02-01T04:05:11.686Z,1.50
2018-02-01T04:07:39.295Z,1.50
2018-02-01T04:10:06.829Z,1.50
2018-02-01T04:12:34.503Z,1.50
2018-02-01T04:15:02.095Z,1.50
2018-02-01T04:17:29.621Z,1.50
2018-02-01T04:19:58.044Z,1.50
2018-02-01T04:22:25.574Z,1.50
2018-02-01T04:24:53.187Z,1.50
2018-02-01T04:27:20.765Z,1.50
2018-02-01T04:29:48.290Z,1.50
2018-02-01T04:32:16.578Z,1.40
2018-02-01T04:34:44.158Z,1.40
2018-02-01T04:37:12.456Z,1.50
2018-02-01T04:39:39.998Z,1.50
2018-02-01T04:42:07.762Z,1.50
2018-02-01T04:44:35.303Z,1.50
2018-02-01T04:47:02.961Z,1.50
2018-02-01T04:49:31.303Z,1.50
2018-02-01T04:51:58.942Z,1.50
2018-02-01T04:54:26.490Z,1.50
2018-02-01T04:56:54.084Z,1.50
2018-02-01T04:59:21.628Z,1.50
2018-02-01T05:01:49.181Z,1.50
2018-02-01T05:04:17.526Z,1.60
2018-02-01T05:06:45.062Z,1.60
2018-02-01T05:09:12.605Z,1.60
2018-02-01T05:11:40.228Z,1.60
2018-02-01T05:14:07.762Z,1.60
2018-02-01T05:16:36.055Z,1.60
2018-02-01T05:19:04.468Z,1.60
2018-02-01T05:21:32.062Z,1.60
2018-02-01T05:23:59.588Z,1.50
2018-02-01T05:26:27.927Z,1.60
2018-02-01T05:28:55.459Z,1.50
2018-02-01T05:31:22.994Z,1.60
2018-02-01T05:33:50.623Z,1.50
2018-02-01T05:36:18.194Z,1.50
2018-02-01T05:38:45.718Z,1.50
2018-02-01T05:41:14.173Z,1.60
2018-02-01T05:43:41.729Z,1.60
2018-02-01T05:46:09.254Z,1.60
2018-02-01T05:48:37.593Z,1.60
2018-02-01T05:51:05.124Z,1.60
2018-02-01T05:53:33.418Z,1.70
2018-02-01T05:56:01.771Z,1.70
2018-02-01T05:58:34.214Z,1.60
2018-02-01T06:01:01.785Z,1.70
2018-02-01T06:03:29.467Z,1.70
2018-02-01T06:05:56.990Z,1.70
2018-02-01T06:08:25.422Z,1.70
2018-02-01T06:10:52.958Z,1.70
2018-02-01T06:13:21.266Z,1.80
2018-02-01T06:15:48.849Z,1.80
2018-02-01T06:18:16.395Z,1.80
2018-02-01T06:20:44.786Z,1.90
2018-02-01T06:23:13.360Z,1.80
2018-02-01T06:25:40.892Z,1.80
2018-02-01T06:28:08.424Z,1.80
2018-02-01T06:30:37.446Z,1.80
2018-02-01T06:33:05.038Z,1.80
2018-02-01T06:35:32.586Z,1.80
2018-02-01T06:38:00.185Z,1.80
2018-02-01T06:40:27.712Z,1.90
2018-02-01T06:42:56.045Z,1.90
2018-02-01T06:45:23.612Z,1.80
2018-02-01T06:47:51.151Z,1.80
2018-02-01T06:50:18.762Z,1.80
2018-02-01T06:52:46.342Z,1.80
2018-02-01T06:55:13.882Z,1.80
2018-02-01T06:57:41.414Z,1.80
2018-02-01T07:00:09.756Z,1.80
2018-02-01T07:02:37.322Z,1.70
2018-02-01T07:05:04.890Z,1.80
2018-02-01T07:07:32.588Z,1.70
2018-02-01T07:10:00.121Z,1.80
2018-02-01T07:12:28.739Z,1.80
2018-02-01T07:14:56.375Z,1.80
2018-02-01T07:17:24.669Z,1.90
2018-02-01T07:19:53.031Z,2.00
2018-02-01T07:22:21.392Z,2.10
2018-02-01T07:24:49.035Z,2.10
2018-02-01T07:27:16.567Z,2.10
2018-02-01T07:29:45.834Z,2.10
2018-02-01T07:32:13.410Z,2.10
2018-02-01T07:34:41.066Z,2.10
2018-02-01T07:37:08.670Z,2.10
2018-02-01T07:39:36.216Z,2.20
2018-02-01T07:42:03.782Z,2.20
2018-02-01T07:44:31.454Z,2.10
2018-02-01T07:46:59.885Z,2.20
2018-02-01T07:49:27.534Z,2.20
2018-02-01T07:51:55.115Z,2.20
2018-02-01T07:54:22.686Z,2.10
2018-02-01T07:56:50.227Z,2.20
2018-02-01T07:59:17.806Z,2.20
2018-02-01T08:01:45.380Z,2.20
2018-02-01T08:04:12.917Z,2.30
2018-02-01T08:06:41.245Z,2.30
2018-02-01T08:09:08.778Z,2.30
2018-02-01T08:11:37.125Z,2.40
2018-02-01T08:14:04.699Z,2.40
2018-02-01T08:16:32.450Z,2.40
2018-02-01T08:19:00.014Z,2.50
2018-02-01T08:21:27.622Z,2.50
2018-02-01T08:23:55.152Z,2.60
2018-02-01T08:26:22.694Z,2.70
2018-02-01T08:28:51.046Z,3.00
2018-02-01T08:31:18.579Z,3.00
2018-02-01T08:33:46.177Z,3.10
2018-02-01T08:36:13.769Z,3.30
2018-02-01T08:38:41.502Z,3.30
2018-02-01T08:41:09.089Z,3.50
2018-02-01T08:43:36.674Z,3.70
2018-02-01T08:46:04.220Z,4.20
2018-02-01T08:48:31.749Z,4.60
2018-02-01T08:50:59.364Z,5.00
2018-02-01T08:53:26.902Z,5.20
2018-02-01T08:55:55.230Z,5.00
2018-02-01T08:58:22.803Z,5.00
2018-02-01T09:00:50.346Z,4.90
2018-02-01T09:03:17.886Z,4.90
2018-02-01T09:05:45.617Z,5.00
2018-02-01T09:08:13.142Z,5.10
2018-02-01T09:10:42.194Z,5.40
2018-02-01T09:13:09.803Z,5.30
2018-02-01T09:15:37.442Z,5.40
2018-02-01T09:18:05.096Z,5.50
2018-02-01T09:20:32.667Z,5.60
2018-02-01T09:23:00.552Z,5.80
2018-02-01T09:25:28.087Z,6.10
2018-02-01T09:27:56.626Z,6.50
2018-02-01T09:30:24.496Z,6.50
2018-02-01T09:32:52.028Z,6.60
2018-02-01T09:35:19.707Z,6.60
2018-02-01T09:37:48.006Z,6.50
2018-02-01T09:40:16.435Z,6.50
2018-02-01T09:42:44.014Z,6.50
2018-02-01T09:45:11.570Z,6.50
2018-02-01T09:47:39.102Z,6.60
2018-02-01T09:50:07.522Z,6.30
2018-02-01T09:52:35.058Z,6.30
2018-02-01T09:55:03.357Z,6.30
2018-02-01T09:57:31.700Z,6.30
2018-02-01T09:59:59.226Z,6.30
2018-02-01T10:02:26.765Z,6.30
2018-02-01T10:04:54.409Z,6.20
2018-02-01T10:07:21.980Z,5.90
2018-02-01T10:09:49.539Z,5.80
2018-02-01T10:12:17.650Z,5.70
2018-02-01T10:14:45.178Z,5.50
2018-02-01T10:17:12.737Z,5.50
2018-02-01T10:19:40.322Z,5.40
2018-02-01T10:22:07.851Z,5.30
2018-02-01T10:24:36.154Z,5.10
2018-02-01T10:27:04.498Z,5.00
2018-02-01T10:29:32.058Z,5.00
2018-02-01T10:31:59.600Z,5.00
2018-02-01T10:34:27.180Z,5.10
2018-02-01T10:36:54.709Z,5.40
2018-02-01T10:39:22.359Z,5.70
2018-02-01T10:41:50.249Z,6.00
2018-02-01T10:44:17.778Z,6.20
2018-02-01T10:46:45.330Z,6.20
2018-02-01T10:49:12.931Z,6.40
2018-02-01T10:51:40.696Z,6.50
2018-02-01T10:54:08.369Z,6.50
2018-02-01T10:56:36.976Z,6.50
2018-02-01T10:59:04.713Z,6.40
2018-02-01T11:01:32.275Z,6.20
2018-02-01T11:03:59.845Z,6.00
2018-02-01T11:06:28.479Z,5.70
2018-02-01T11:08:56.151Z,5.60
2018-02-01T11:11:23.843Z,5.60
2018-02-01T11:13:51.383Z,5.60
2018-02-01T11:16:19.087Z,5.70
2018-02-01T11:18:46.691Z,5.60
2018-02-01T11:21:14.265Z,5.40
2018-02-01T11:23:41.801Z,5.40
2018-02-01T11:26:09.383Z,5.40
2018-02-01T11:28:36.919Z,5.40
2018-02-01T11:31:04.518Z,5.40
2018-02-01T11:33:32.111Z,5.40
2018-02-01T11:35:59.650Z,5.40
2018-02-01T11:38:27.317Z,5.40
2018-02-01T11:40:54.905Z,5.50
2018-02-01T11:43:22.434Z,5.40
2018-02-01T11:45:50.439Z,5.50
2018-02-01T11:48:18.034Z,5.50
2018-02-01T11:50:45.573Z,5.50
2018-02-01T11:53:13.106Z,5.50
2018-02-01T11:55:42.435Z,5.70
2018-02-01T11:58:11.703Z,5.80
2018-02-01T12:00:39.243Z,5.80
2018-02-01T12:03:06.823Z,5.70
2018-02-01T12:05:34.358Z,5.60
2018-02-01T12:08:01.886Z,5.50
2018-02-01T12:10:29.449Z,5.50
2018-02-01T12:12:57.010Z,5.40
2018-02-01T12:15:24.550Z,5.30
2018-02-01T12:17:52.980Z,5.40
2018-02-01T12:20:20.571Z,5.40
2018-02-01T12:22:48.114Z,5.50
2018-02-01T12:25:15.689Z,5.60
2018-02-01T12:27:43.242Z,5.70
2018-02-01T12:30:10.809Z,5.70
2018-02-01T12:32:38.506Z,5.70
2018-02-01T12:35:06.094Z,5.70
2018-02-01T12:37:33.651Z,5.60
2018-02-01T12:40:01.230Z,5.50
2018-02-01T12:42:28.767Z,5.40
2018-02-01T12:44:56.388Z,5.30
2018-02-01T12:47:24.143Z,5.30
2018-02-01T12:49:51.676Z,5.30
2018-02-01T12:52:20.003Z,5.30
2018-02-01T12:54:47.677Z,5.20
2018-02-01T12:57:15.210Z,5.20
2018-02-01T12:59:43.547Z,5.10
2018-02-01T13:02:11.088Z,5.10
2018-02-01T13:04:38.624Z,5.00
2018-02-01T13:07:06.266Z,4.90
2018-02-01T13:09:33.847Z,4.90
2018-02-01T13:12:01.390Z,4.90
2018-02-01T13:14:28.962Z,4.90
2018-02-01T13:16:56.540Z,4.90
2018-02-01T13:19:24.070Z,4.90
2018-02-01T13:21:52.394Z,4.90
2018-02-01T13:24:20.071Z,4.90
2018-02-01T13:26:47.609Z,4.90
2018-02-01T13:29:15.909Z,5.00
2018-02-01T13:31:43.491Z,5.00
2018-02-01T13:34:11.025Z,5.00
2018-02-01T13:36:39.367Z,5.40
2018-02-01T13:39:07.027Z,5.40
2018-02-01T13:41:34.554Z,5.80
2018-02-01T13:44:02.866Z,6.20
2018-02-01T13:46:31.198Z,6.20
2018-02-01T13:48:58.757Z,6.20
2018-02-01T13:51:26.326Z,6.20
2018-02-01T13:53:54.102Z,6.20
2018-02-01T13:56:21.647Z,6.20
2018-02-01T13:58:49.187Z,6.00
2018-02-01T14:01:16.801Z,5.90
2018-02-01T14:03:44.331Z,5.70
2018-02-01T14:06:11.862Z,5.60
2018-02-01T14:08:39.484Z,5.40
2018-02-01T14:11:08.630Z,5.30
2018-02-01T14:13:36.157Z,5.30
2018-02-01T14:16:04.607Z,5.20
2018-02-01T14:21:35.442Z,5.10
2018-02-01T14:24:02.992Z,5.10
2018-02-01T14:26:30.527Z,5.10
2018-02-01T14:28:58.102Z,5.10
2018-02-01T14:31:25.641Z,5.00
2018-02-01T14:33:53.938Z,5.00
2018-02-01T14:36:21.543Z,4.90
2018-02-01T14:38:49.884Z,4.90
2018-02-01T14:41:18.586Z,4.90
2018-02-01T14:43:46.384Z,4.80
2018-02-01T14:46:13.915Z,4.90
2018-02-01T14:48:41.507Z,4.90
2018-02-01T14:51:09.829Z,5.00
2018-02-01T14:53:37.359Z,5.00
2018-02-01T14:56:05.668Z,5.00
2018-02-01T14:58:33.299Z,5.00
2018-02-01T15:01:00.870Z,4.90
2018-02-01T15:03:28.398Z,4.90
2018-02-01T15:05:55.967Z,4.80
2018-02-01T15:08:23.498Z,4.70
2018-02-01T15:10:51.791Z,4.60
2018-02-01T15:13:20.124Z,4.60
2018-02-01T15:15:47.670Z,4.60
2018-02-01T15:18:15.255Z,4.60
2018-02-01T15:20:42.887Z,4.60
2018-02-01T15:23:11.182Z,4.60
2018-02-01T15:25:39.478Z,4.50
2018-02-01T15:28:07.822Z,4.50
2018-02-01T15:30:35.358Z,4.50
2018-02-01T15:33:02.943Z,4.50
2018-02-01T15:35:30.563Z,4.50
2018-02-01T15:37:58.923Z,5.00
2018-02-01T15:40:26.426Z,4.90
2018-02-01T15:42:54.019Z,5.20
2018-02-01T15:45:22.317Z,5.40
2018-02-01T15:47:49.858Z,5.30
2018-02-01T15:50:17.512Z,5.20
2018-02-01T15:52:45.039Z,5.00
2018-02-01T15:55:12.566Z,4.80
2018-02-01T15:57:40.914Z,4.40
2018-02-01T16:00:08.446Z,4.40
2018-02-01T16:02:36.756Z,4.30
2018-02-01T16:05:04.335Z,4.30
2018-02-01T16:07:31.864Z,4.30
2018-02-01T16:09:59.397Z,4.20
2018-02-01T16:12:26.974Z,4.10
2018-02-01T16:14:54.503Z,4.00
2018-02-01T16:17:22.034Z,3.90
2018-02-01T16:19:49.615Z,3.90
2018-02-01T16:22:17.762Z,3.80
2018-02-01T16:24:45.375Z,3.80
2018-02-01T16:27:12.961Z,3.80
2018-02-01T16:29:41.254Z,3.90
2018-02-01T16:32:09.555Z,3.90
2018-02-01T16:34:37.134Z,3.90
2018-02-01T16:37:04.711Z,3.90
2018-02-01T16:39:32.602Z,3.90
2018-02-01T16:42:00.225Z,4.00
2018-02-01T16:44:29.086Z,4.00
2018-02-01T16:46:56.670Z,4.00
2018-02-01T16:49:24.269Z,4.10
2018-02-01T16:51:52.584Z,4.10
2018-02-01T16:54:20.119Z,4.10
2018-02-01T16:56:47.695Z,4.00
2018-02-01T16:59:15.230Z,4.00
2018-02-01T17:01:43.038Z,3.90
2018-02-01T17:04:10.875Z,3.80
2018-02-01T17:06:38.413Z,3.70
2018-02-01T17:09:06.714Z,3.60
2018-02-01T17:11:34.303Z,3.60
2018-02-01T17:14:01.858Z,3.60
2018-02-01T17:16:29.407Z,3.50
2018-02-01T17:18:57.739Z,3.50
2018-02-01T17:21:25.274Z,3.50
2018-02-01T17:23:53.711Z,3.60
2018-02-01T17:26:21.285Z,3.60
2018-02-01T17:28:48.823Z,3.80
2018-02-01T17:31:16.351Z,4.00
2018-02-01T17:33:45.502Z,4.20
2018-02-01T17:36:13.035Z,4.20
2018-02-01T17:38:40.580Z,4.30
2018-02-01T17:41:08.147Z,4.50
2018-02-01T17:43:35.789Z,4.60
2018-02-01T17:46:03.339Z,4.60
2018-02-01T17:48:31.856Z,4.30
2018-02-01T17:50:59.390Z,4.30
2018-02-01T17:53:27.852Z,3.90
2018-02-01T17:55:56.322Z,3.80
2018-02-01T17:58:23.993Z,3.70
2018-02-01T18:00:51.782Z,3.70
2018-02-01T18:03:20.224Z,3.70
2018-02-01T18:05:47.786Z,3.70
2018-02-01T18:08:16.091Z,3.70
2018-02-01T18:10:44.835Z,3.60
2018-02-01T18:13:12.478Z,3.60
2018-02-01T18:15:40.061Z,3.60
2018-02-01T18:18:07.683Z,3.50
2018-02-01T18:20:35.305Z,3.40
2018-02-01T18:23:02.902Z,3.40
2018-02-01T18:25:30.570Z,3.40
2018-02-01T18:27:58.921Z,3.40
2018-02-01T18:30:26.616Z,3.30
2018-02-01T18:32:54.386Z,3.30
2018-02-01T18:35:21.970Z,3.30
2018-02-01T18:37:49.910Z,3.20
2018-02-01T18:40:18.540Z,3.20
2018-02-01T18:42:46.135Z,3.10
2018-02-01T18:45:13.669Z,3.20
2018-02-01T18:47:41.242Z,3.20
2018-02-01T18:50:08.819Z,3.10
2018-02-01T18:52:36.354Z,3.10
2018-02-01T18:55:04.698Z,3.10
2018-02-01T18:57:32.229Z,3.10
2018-02-01T19:00:00.637Z,3.00
2018-02-01T19:02:28.310Z,3.00
2018-02-01T19:04:55.902Z,3.00
2018-02-01T19:07:23.461Z,3.00
2018-02-01T19:09:51.059Z,3.00
2018-02-01T19:12:18.687Z,3.00
2018-02-01T19:14:46.243Z,3.00
2018-02-01T19:17:14.587Z,3.00
2018-02-01T19:19:42.158Z,3.00
2018-02-01T19:22:09.694Z,3.00
2018-02-01T19:24:37.285Z,2.90
2018-02-01T19:27:04.835Z,2.90
2018-02-01T19:29:32.381Z,2.90
2018-02-01T19:32:00.798Z,2.80
2018-02-01T19:34:28.330Z,2.80
2018-02-01T19:36:55.862Z,2.80
2018-02-01T19:39:23.550Z,2.80
2018-02-01T19:41:51.185Z,2.80
2018-02-01T19:44:18.755Z,2.80
2018-02-01T19:46:46.328Z,2.80
2018-02-01T19:49:13.864Z,2.80
2018-02-01T19:51:41.408Z,2.80
2018-02-01T19:54:09.041Z,2.80
2018-02-01T19:56:37.365Z,2.80
2018-02-01T19:59:05.010Z,2.80
2018-02-01T20:01:32.602Z,2.90
2018-02-01T20:04:00.135Z,3.00
2018-02-01T20:06:28.431Z,3.10
2018-02-01T20:08:55.999Z,3.10
2018-02-01T20:11:23.550Z,3.20
2018-02-01T20:13:51.850Z,3.20
2018-02-01T20:16:20.187Z,3.30
2018-02-01T20:18:48.138Z,3.20
2018-02-01T20:21:15.690Z,3.30
2018-02-01T20:23:43.298Z,3.30
2018-02-01T20:26:10.832Z,3.30
2018-02-01T20:28:39.158Z,3.30
2018-02-01T20:31:06.812Z,3.30
2018-02-01T20:33:34.349Z,3.30
2018-02-01T20:36:01.903Z,3.30
2018-02-01T20:38:29.493Z,3.40
2018-02-01T20:40:57.798Z,3.30
2018-02-01T20:43:25.767Z,3.30
2018-02-01T20:45:53.690Z,3.40
2018-02-01T20:48:22.806Z,3.40
2018-02-01T20:50:50.459Z,3.40
2018-02-01T20:53:18.342Z,3.40
2018-02-01T20:55:45.902Z,3.40
2018-02-01T20:58:13.462Z,3.40
2018-02-01T21:00:41.134Z,3.30
2018-02-01T21:03:08.736Z,3.40
2018-02-01T21:05:36.273Z,3.40
2018-02-01T21:08:04.622Z,3.40
2018-02-01T21:10:32.170Z,3.40
2018-02-01T21:12:59.703Z,3.50
2018-02-01T21:15:28.095Z,3.50
2018-02-01T21:17:56.397Z,3.50
2018-02-01T21:20:23.931Z,3.50
2018-02-01T21:22:51.611Z,3.50
2018-02-01T21:25:19.156Z,3.50
2018-02-01T21:27:46.743Z,3.50
2018-02-01T21:30:14.336Z,3.50
2018-02-01T21:32:42.654Z,3.50
2018-02-01T21:35:10.186Z,3.50
2018-02-01T21:37:37.766Z,3.50
2018-02-01T21:40:06.070Z,3.50
2018-02-01T21:42:34.408Z,3.50
2018-02-01T21:45:01.986Z,3.50
2018-02-01T21:47:29.520Z,3.60
2018-02-01T21:49:57.094Z,3.60
2018-02-01T21:52:24.674Z,3.60
2018-02-01T21:54:52.219Z,3.60
2018-02-01T21:57:20.528Z,3.60
2018-02-01T21:59:48.094Z,3.60
2018-02-01T22:02:15.635Z,3.60
2018-02-01T22:04:43.932Z,3.70
2018-02-01T22:07:12.274Z,3.60
2018-02-01T22:09:39.804Z,3.60
2018-02-01T22:12:07.353Z,3.70
2018-02-01T22:14:35.702Z,3.70
2018-02-01T22:17:03.234Z,3.60
2018-02-01T22:19:30.769Z,3.60
2018-02-01T22:21:58.392Z,3.70
2018-02-01T22:24:25.930Z,3.70
2018-02-01T22:26:54.248Z,3.70
2018-02-01T22:29:21.846Z,3.70
2018-02-01T22:31:49.390Z,3.70
2018-02-01T22:34:16.953Z,3.70
2018-02-01T22:36:44.640Z,3.70
2018-02-01T22:39:12.204Z,3.70
2018-02-01T22:41:39.755Z,3.70
2018-02-01T22:44:07.479Z,3.80
2018-02-01T22:46:35.019Z,3.80
2018-02-01T22:49:02.659Z,3.80
2018-02-01T22:51:31.086Z,3.80
2018-02-01T22:53:58.644Z,3.80
2018-02-01T22:56:26.199Z,3.80
2018-02-01T22:58:54.561Z,3.80
2018-02-01T23:01:22.111Z,3.80
2018-02-01T23:03:49.657Z,3.80
2018-02-01T23:06:17.258Z,3.80
2018-02-01T23:08:44.786Z,3.80
2018-02-01T23:11:12.364Z,3.80
2018-02-01T23:13:39.942Z,3.80
2018-02-01T23:16:07.487Z,3.80
2018-02-01T23:18:35.790Z,3.80
2018-02-01T23:21:03.370Z,3.80
2018-02-01T23:23:30.903Z,3.80
2018-02-01T23:25:59.201Z,3.80
2018-02-01T23:28:27.652Z,3.80
2018-02-01T23:30:55.183Z,3.80
2018-02-01T23:33:22.723Z,3.80
2018-02-01T23:35:51.070Z,3.80
2018-02-01T23:38:18.602Z,3.80
2018-02-01T23:40:46.907Z,3.80
2018-02-01T23:43:14.539Z,3.70
2018-02-01T23:45:42.070Z,3.70
2018-02-01T23:48:09.610Z,3.70
2018-02-01T23:50:37.278Z,3.70
2018-02-01T23:53:05.621Z,3.70
2018-02-01T23:55:33.139Z,3.70
2018-02-01T23:58:01.575Z,3.70
